Time;durP1;ratioP1;P1;durP2;ratioP2;P2;SDS_P1;SDS_P2;PMS_P1;PMS_P2;Temp;Humidity;BMP_temperature;BMP_pressure;BME280_temperature;BME280_humidity;BME280_pressure;Samples;Min_cycle;Max_cycle;Signal;HPM_P1;HPM_P2
2022/11/15 00:01:46;;;;;;;;;8.67;8.67;;;;;12.10;83.24;100434.31;5078562;27;45892;-58
2022/11/15 00:04:11;;;;;;;;;6.00;3.00;;;;;12.10;83.14;100422.78;5075812;27;45495;-64
2022/11/15 00:06:40;;;;;;;;;8.67;8.67;;;;;12.10;83.04;100428.97;5065479;27;45861;-56
2022/11/15 00:09:05;;;;;;;;;10.00;7.33;;;;;12.10;83.06;100431.66;5059210;27;45401;-56
2022/11/15 00:11:30;;;;;;;;;8.33;7.67;;;;;12.13;82.79;100433.28;5079013;27;45376;-58
2022/11/15 00:13:57;;;;;;;;;8.33;7.67;;;;;12.10;82.89;100420.13;5062675;27;45353;-60
2022/11/15 00:16:23;;;;;;;;;7.00;4.33;;;;;12.03;82.50;100400.19;5068437;27;48704;-59
2022/11/15 00:18:48;;;;;;;;;10.00;8.33;;;;;12.04;82.09;100415.22;5059259;28;45551;-54
2022/11/15 00:21:15;;;;;;;;;6.00;6.00;;;;;11.99;81.81;100412.84;5073824;27;45580;-56
2022/11/15 00:23:40;;;;;;;;;6.00;6.00;;;;;11.89;82.17;100390.41;5060708;27;45585;-60
2022/11/15 00:26:07;;;;;;;;;13.33;7.00;;;;;11.92;82.22;100408.88;5062823;27;46060;-61
2022/11/15 00:28:32;;;;;;;;;6.67;4.00;;;;;11.73;82.52;100371.00;5075399;27;45452;-54
2022/11/15 00:31:07;;;;;;;;;7.33;6.00;;;;;11.82;82.77;100403.25;5069319;27;45371;-62
2022/11/15 00:33:33;;;;;;;;;10.67;7.33;;;;;11.84;82.64;100403.16;5082031;27;45362;-59
2022/11/15 00:36:04;;;;;;;;;7.00;7.00;;;;;11.83;82.75;100404.13;5081723;27;46703;-61
2022/11/15 00:38:33;;;;;;;;;5.33;5.33;;;;;11.74;82.46;100410.88;5062764;27;45572;-63
2022/11/15 00:40:59;;;;;;;;;6.00;6.00;;;;;11.74;82.26;100405.56;5054228;27;45481;-62
2022/11/15 00:43:24;;;;;;;;;4.00;4.00;;;;;11.73;81.68;100387.84;5077570;27;45556;-64
2022/11/15 00:45:50;;;;;;;;;6.00;4.00;;;;;11.73;81.88;100379.00;5056832;28;48031;-56
2022/11/15 00:48:15;;;;;;;;;4.00;4.00;;;;;11.71;81.69;100399.53;5083078;27;45369;-52
2022/11/15 00:50:40;;;;;;;;;5.33;4.00;;;;;11.69;81.56;100396.97;5077896;27;45520;-60
2022/11/15 00:53:06;;;;;;;;;3.67;3.00;;;;;11.65;81.16;100384.81;5068336;27;45532;-57
2022/11/15 00:55:31;;;;;;;;;2.67;2.67;;;;;11.65;81.02;100387.47;5076143;27;46016;-57
2022/11/15 00:57:57;;;;;;;;;5.33;3.00;;;;;11.61;80.86;100393.97;5079564;27;45316;-65
2022/11/15 01:00:23;;;;;;;;;2.00;2.00;;;;;11.58;80.82;100383.47;5076009;27;45248;-58
2022/11/15 01:02:48;;;;;;;;;5.00;3.00;;;;;11.56;80.85;100382.72;5078217;27;45413;-64
2022/11/15 01:05:13;;;;;;;;;3.00;3.00;;;;;11.55;80.34;100381.00;5073997;27;45950;-65
2022/11/15 01:07:39;;;;;;;;;3.00;3.00;;;;;11.50;80.24;100375.13;5078942;27;45259;-61
2022/11/15 01:10:05;;;;;;;;;3.00;3.00;;;;;11.50;80.20;100375.13;5085031;27;45933;-61
2022/11/15 01:12:30;;;;;;;;;3.00;2.00;;;;;11.48;79.80;100379.72;5067391;27;45258;-65
2022/11/15 01:14:56;;;;;;;;;3.67;2.67;;;;;11.43;80.01;100373.81;5075124;27;46200;-57
2022/11/15 01:17:21;;;;;;;;;2.33;2.33;;;;;11.40;79.58;100374.00;5056512;27;45394;-60
2022/11/15 01:19:47;;;;;;;;;3.00;3.00;;;;;11.43;79.89;100363.16;5066344;27;45323;-62
2022/11/15 01:22:12;;;;;;;;;2.00;2.00;;;;;11.38;80.31;100354.59;5058429;28;45548;-56
2022/11/15 01:24:38;;;;;;;;;6.00;3.33;;;;;11.44;79.99;100356.88;5076551;27;45304;-59
2022/11/15 01:27:03;;;;;;;;;2.00;2.00;;;;;11.38;79.80;100349.28;5068802;27;45397;-59
2022/11/15 01:29:29;;;;;;;;;2.00;2.00;;;;;11.39;80.17;100351.00;5067172;27;45399;-59
2022/11/15 01:31:54;;;;;;;;;6.33;3.00;;;;;11.38;79.97;100365.25;5075051;27;45545;-62
2022/11/15 01:34:19;;;;;;;;;2.67;2.67;;;;;11.34;79.70;100353.97;5064507;27;45425;-61
2022/11/15 01:36:45;;;;;;;;;1.00;1.00;;;;;11.33;79.86;100351.34;5069626;27;45292;-60
2022/11/15 01:39:10;;;;;;;;;4.00;4.00;;;;;11.30;79.93;100340.91;5074842;27;45292;-60
2022/11/15 01:41:35;;;;;;;;;2.00;2.00;;;;;11.28;79.98;100332.16;5043368;28;45761;-60
2022/11/15 01:44:29;;;;;;;;;3.67;2.00;;;;;11.29;79.88;100334.72;5076553;27;45399;-57
2022/11/15 01:46:54;;;;;;;;;4.00;3.00;;;;;11.28;80.33;100333.03;5064894;27;45366;-56
2022/11/15 01:49:22;;;;;;;;;2.33;2.00;;;;;11.25;80.59;100333.22;5075389;27;45397;-56
2022/11/15 01:51:48;;;;;;;;;3.00;3.00;;;;;11.24;80.19;100331.53;5070496;27;45336;-58
2022/11/15 01:54:17;;;;;;;;;4.33;3.33;;;;;11.18;80.44;100330.06;5065643;27;45343;-55
2022/11/15 01:56:59;;;;;;;;;6.33;4.00;;;;;11.12;80.28;100322.50;5073091;27;45592;-54
2022/11/15 01:59:26;;;;;;;;;4.00;2.67;;;;;11.09;80.57;100306.72;5074417;27;45497;-54
2022/11/15 02:01:51;;;;;;;;;3.00;3.00;;;;;11.03;80.58;100317.72;5063438;27;45438;-54
2022/11/15 02:04:23;;;;;;;;;3.67;1.67;;;;;11.00;80.65;100307.28;5082037;27;45410;-54
2022/11/15 02:06:49;;;;;;;;;6.00;6.00;;;;;10.90;80.49;100291.03;5082810;27;45508;-55
2022/11/15 02:09:15;;;;;;;;;4.67;2.00;;;;;10.86;80.06;100294.00;5082366;27;45703;-54
2022/11/15 02:11:41;;;;;;;;;3.00;3.00;;;;;10.80;80.05;100287.22;5068903;27;45471;-55
2022/11/15 02:14:07;;;;;;;;;10.00;4.33;;;;;10.79;80.00;100297.97;5039977;28;46498;-56
2022/11/15 02:16:48;;;;;;;;;6.00;3.00;;;;;10.74;80.07;100284.97;5053082;28;45504;-56
2022/11/15 02:19:31;;;;;;;;;2.67;2.67;;;;;10.74;80.41;100284.09;5061550;27;45312;-64
2022/11/15 02:22:34;;;;;;;;;3.00;3.00;;;;;10.68;80.07;100279.16;5075059;27;47157;-54
2022/11/15 02:25:08;;;;;;;;;4.25;4.25;;;;;10.64;80.05;100274.03;5060897;27;46125;-57
2022/11/15 02:27:48;;;;;;;;;1.50;0.00;;;;;10.64;79.70;100276.69;5052477;27;45436;-60
2022/11/15 02:30:20;;;;;;;;;6.00;2.67;;;;;10.58;79.68;100269.09;5071840;27;45292;-61
2022/11/15 02:33:02;;;;;;;;;4.00;4.00;;;;;10.56;79.19;100265.69;5074893;27;45548;-54
2022/11/15 02:35:45;;;;;;;;;3.00;3.00;;;;;10.52;79.22;100264.13;5076406;27;45432;-54
2022/11/15 02:38:13;;;;;;;;;5.25;5.25;;;;;10.52;79.47;100264.13;5074924;27;45330;-53
2022/11/15 02:40:49;;;;;;;;;6.25;3.75;;;;;10.42;79.92;100257.69;5076510;27;45437;-57
2022/11/15 02:46:12;;;;;;;;;3.00;2.00;;;;;10.43;78.87;100253.22;5072396;27;45807;-55
2022/11/15 02:48:38;;;;;;;;;3.00;3.00;;;;;10.41;78.96;100255.94;5085624;27;45461;-58
2022/11/15 02:51:05;;;;;;;;;6.00;4.75;;;;;10.24;78.80;100213.59;5074507;27;45326;-53
2022/11/15 02:53:31;;;;;;;;;3.00;3.00;;;;;10.41;79.08;100245.31;5060235;27;45272;-59
2022/11/15 02:55:57;;;;;;;;;4.50;3.00;;;;;10.35;78.26;100232.41;5072276;27;45474;-57
2022/11/15 02:58:30;;;;;;;;;5.50;3.00;;;;;10.35;79.35;100235.06;5070162;27;45516;-62
2022/11/15 03:01:39;;;;;;;;;4.75;3.00;;;;;10.27;79.44;100216.91;5057249;27;45836;-56
2022/11/15 03:04:26;;;;;;;;;5.00;2.25;;;;;10.33;78.93;100221.03;5023649;28;45416;-65
2022/11/15 03:07:11;;;;;;;;;5.00;3.00;;;;;10.25;78.53;100207.34;5063576;27;46138;-61
2022/11/15 03:09:50;;;;;;;;;2.00;2.00;;;;;10.29;78.03;100208.88;5082134;27;45552;-61
2022/11/15 03:12:29;;;;;;;;;3.75;2.50;;;;;10.28;78.57;100207.13;5071511;27;45639;-60
2022/11/15 03:15:05;;;;;;;;;3.00;3.00;;;;;10.29;79.13;100203.56;5031772;28;45453;-59
2022/11/15 03:17:37;;;;;;;;;4.75;2.25;;;;;10.29;78.95;100198.25;5074490;27;45449;-54
2022/11/15 03:20:05;;;;;;;;;1.50;1.50;;;;;10.30;78.48;100207.94;5070738;27;45435;-54
2022/11/15 03:22:38;;;;;;;;;2.50;2.50;;;;;10.31;78.99;100202.50;5070972;27;45454;-55
2022/11/15 03:25:08;;;;;;;;;6.50;4.00;;;;;10.33;78.84;100194.44;5073497;27;45469;-55
2022/11/15 03:27:38;;;;;;;;;5.50;3.25;;;;;10.32;79.16;100188.28;5066369;27;45387;-53
2022/11/15 03:30:07;;;;;;;;;3.00;3.00;;;;;10.38;78.74;100181.72;5076644;27;45445;-55
2022/11/15 03:32:39;;;;;;;;;7.00;2.00;;;;;10.36;78.29;100180.97;5063138;27;45436;-57
2022/11/15 03:35:15;;;;;;;;;5.75;2.50;;;;;10.35;78.18;100187.22;5077822;27;45585;-53
2022/11/15 03:37:57;;;;;;;;;6.00;2.25;;;;;10.29;78.89;100179.66;5045123;28;46516;-56
2022/11/15 03:40:30;;;;;;;;;2.25;2.25;;;;;10.29;78.85;100183.16;5075641;27;45515;-57
2022/11/15 03:43:14;;;;;;;;;2.00;1.00;;;;;10.29;78.80;100188.47;5064088;27;45555;-58
2022/11/15 03:45:47;;;;;;;;;6.00;3.33;;;;;10.30;78.69;100184.00;5074074;27;45555;-55
2022/11/15 03:48:26;;;;;;;;;7.00;6.00;;;;;10.29;77.94;100179.66;5066833;27;45423;-60
2022/11/15 03:50:52;;;;;;;;;6.50;3.00;;;;;10.23;79.37;100177.34;5077718;27;45518;-59
2022/11/15 03:53:17;;;;;;;;;3.00;3.00;;;;;10.21;79.46;100171.25;5063515;27;45432;-61
2022/11/15 03:55:43;;;;;;;;;3.00;2.33;;;;;10.22;79.03;100175.63;5073263;27;45535;-61
2022/11/15 03:58:09;;;;;;;;;5.00;5.00;;;;;10.24;78.45;100171.94;5058743;28;46802;-56
2022/11/15 04:00:34;;;;;;;;;3.00;3.00;;;;;10.24;78.89;100173.72;5058086;27;45366;-54
2022/11/15 04:03:00;;;;;;;;;5.25;5.25;;;;;10.24;78.92;100169.28;5065664;27;45523;-61
2022/11/15 04:05:25;;;;;;;;;6.33;3.33;;;;;10.19;79.03;100162.50;5043826;28;45986;-64
2022/11/15 04:07:51;;;;;;;;;6.00;6.00;;;;;10.17;79.05;100161.75;5076052;27;45480;-58
2022/11/15 04:10:16;;;;;;;;;6.67;3.00;;;;;10.20;79.35;100158.91;5075806;27;47059;-63
2022/11/15 04:12:47;;;;;;;;;1.00;1.00;;;;;10.15;78.96;100168.94;5068608;27;45490;-56
2022/11/15 04:15:15;;;;;;;;;7.50;2.75;;;;;10.07;79.27;100152.63;5074648;27;45538;-58
2022/11/15 04:17:45;;;;;;;;;4.75;4.25;;;;;10.12;79.21;100169.13;5074742;27;46393;-58
2022/11/15 04:26:07;;;;;;;;;4.00;4.00;;;;;10.03;79.48;100155.47;5075780;27;45491;-57
2022/11/15 04:28:32;;;;;;;;;5.00;2.67;;;;;10.01;79.39;100156.50;5078867;27;45548;-60
2022/11/15 04:30:58;;;;;;;;;5.00;5.00;;;;;10.00;79.52;100149.47;5075053;27;45426;-57
2022/11/15 04:33:23;;;;;;;;;4.50;3.00;;;;;9.95;79.79;100147.09;5076272;27;45821;-63
2022/11/15 04:38:33;;;;;;;;;4.00;2.50;;;;;9.98;80.17;100144.25;5076165;27;45531;-55
2022/11/15 04:40:58;;;;;;;;;4.50;4.50;;;;;9.95;80.18;100140.94;5056322;27;45420;-54
2022/11/15 04:43:24;;;;;;;;;2.75;2.75;;;;;9.92;80.72;100131.38;5066620;27;45549;-60
2022/11/15 04:45:49;;;;;;;;;3.75;2.00;;;;;9.94;80.28;100134.78;5074369;27;45494;-60
2022/11/15 04:48:14;;;;;;;;;2.33;2.00;;;;;9.94;80.06;100126.81;5076025;27;46272;-58
2022/11/15 04:50:40;;;;;;;;;1.00;1.00;;;;;9.91;80.66;100119.03;5081289;27;45494;-62
2022/11/15 04:53:05;;;;;;;;;3.50;2.75;;;;;9.90;81.07;100116.47;5077480;27;45809;-61
2022/11/15 04:55:31;;;;;;;;;6.25;5.00;;;;;9.94;80.85;100118.84;5077252;27;45378;-55
2022/11/15 04:57:58;;;;;;;;;2.50;1.00;;;;;9.93;80.95;100106.50;5060445;27;46617;-58
2022/11/15 05:00:24;;;;;;;;;5.00;2.00;;;;;9.91;80.67;100113.72;5080874;27;45283;-56
2022/11/15 05:05:33;;;;;;;;;5.50;2.50;;;;;9.88;81.72;100102.41;5058306;27;45336;-55
2022/11/15 05:07:59;;;;;;;;;3.50;2.75;;;;;9.83;81.56;100091.22;5071145;27;45521;-60
2022/11/15 05:10:24;;;;;;;;;2.50;2.00;;;;;9.90;82.05;100101.38;5037605;28;45564;-54
2022/11/15 05:12:49;;;;;;;;;2.25;2.25;;;;;9.88;81.27;100102.41;5051016;28;45488;-55
2022/11/15 05:15:15;;;;;;;;;2.25;2.00;;;;;9.89;81.80;100110.28;5057930;27;45336;-54
2022/11/15 05:17:40;;;;;;;;;2.75;2.75;;;;;9.83;81.76;100081.44;5074678;27;45500;-54
2022/11/15 05:20:06;;;;;;;;;3.50;2.50;;;;;9.86;81.63;100089.22;5054428;27;45434;-58
2022/11/15 05:22:32;;;;;;;;;4.00;2.00;;;;;9.80;81.32;100086.97;5056893;27;45424;-57
2022/11/15 05:24:58;;;;;;;;;3.00;2.00;;;;;9.85;81.54;100086.66;5078241;27;45572;-56
2022/11/15 05:27:23;;;;;;;;;2.00;2.00;;;;;9.78;82.32;100083.53;5070721;27;46598;-54
2022/11/15 05:29:48;;;;;;;;;3.50;2.00;;;;;9.79;82.33;100085.25;5063795;28;45274;-56
2022/11/15 05:32:14;;;;;;;;;2.75;2.75;;;;;9.91;82.83;100097.78;5076042;27;45513;-57
2022/11/15 05:34:39;;;;;;;;;2.25;2.00;;;;;9.89;81.85;100089.03;5076032;27;46047;-56
2022/11/15 05:37:05;;;;;;;;;6.25;2.50;;;;;9.97;81.53;100099.19;5074600;27;47809;-57
2022/11/15 05:39:30;;;;;;;;;3.00;2.00;;;;;10.00;82.36;100107.81;5075001;27;45186;-58
2022/11/15 05:42:04;;;;;;;;;4.00;4.00;;;;;10.04;82.45;100104.06;5074839;27;45363;-61
2022/11/15 05:44:31;;;;;;;;;6.67;3.00;;;;;10.09;81.76;100108.22;5075246;27;45476;-55
2022/11/15 05:47:00;;;;;;;;;5.00;2.33;;;;;10.11;82.06;100109.81;5058173;28;45301;-59
2022/11/15 05:49:31;;;;;;;;;3.00;3.00;;;;;10.15;82.17;100107.81;5075155;27;45906;-60
2022/11/15 05:51:57;;;;;;;;;3.00;2.00;;;;;10.20;82.36;100100.44;5076937;27;46854;-63
2022/11/15 05:54:24;;;;;;;;;7.00;3.00;;;;;10.26;81.84;100095.63;5059053;27;45621;-61
2022/11/15 05:56:50;;;;;;;;;5.00;4.67;;;;;10.30;82.55;100077.69;5070878;27;46662;-60
2022/11/15 05:59:16;;;;;;;;;4.00;3.00;;;;;10.29;82.48;100073.34;5074404;27;45516;-58
2022/11/15 06:01:42;;;;;;;;;5.75;3.00;;;;;10.30;81.56;100072.38;5060320;28;45535;-58
2022/11/15 06:04:08;;;;;;;;;4.33;4.33;;;;;10.34;81.95;100073.88;5074767;27;45308;-61
2022/11/15 06:06:33;;;;;;;;;2.75;2.75;;;;;10.39;82.26;100060.28;5075766;27;45379;-57
2022/11/15 06:08:58;;;;;;;;;5.00;3.00;;;;;10.48;81.66;100057.06;5073614;27;47254;-64
2022/11/15 06:11:24;;;;;;;;;6.67;3.00;;;;;10.52;81.99;100045.25;5077265;27;45569;-58
2022/11/15 06:13:49;;;;;;;;;3.67;3.67;;;;;10.54;81.36;100053.97;5045099;27;45704;-60
2022/11/15 06:16:15;;;;;;;;;3.75;3.75;;;;;10.55;81.18;100056.56;5074346;27;46458;-65
2022/11/15 06:18:40;;;;;;;;;7.25;6.00;;;;;10.59;81.13;100050.09;5069163;27;45304;-60
2022/11/15 06:21:06;;;;;;;;;4.25;4.00;;;;;10.58;81.01;100031.59;5077747;27;45374;-60
2022/11/15 06:23:33;;;;;;;;;6.25;6.25;;;;;10.66;80.83;100031.06;5074774;27;45556;-55
2022/11/15 06:26:00;;;;;;;;;4.75;4.75;;;;;10.60;81.04;100027.88;5064616;28;46235;-58
2022/11/15 06:28:29;;;;;;;;;6.33;6.00;;;;;10.60;81.16;100033.19;5075141;27;45414;-61
2022/11/15 06:30:54;;;;;;;;;3.00;3.00;;;;;10.51;81.05;99995.69;5075613;27;45365;-59
2022/11/15 06:33:19;;;;;;;;;5.67;4.33;;;;;10.63;81.04;100022.34;5074654;28;45493;-60
2022/11/15 06:35:45;;;;;;;;;3.33;3.33;;;;;10.68;81.24;100013.19;5079132;28;45266;-58
2022/11/15 06:38:11;;;;;;;;;4.00;3.67;;;;;10.68;81.41;100018.53;5077611;27;45279;-63
2022/11/15 06:40:38;;;;;;;;;3.00;3.00;;;;;10.69;81.32;100006.97;5080021;27;45247;-59
2022/11/15 06:43:05;;;;;;;;;5.00;3.50;;;;;10.71;80.81;99999.72;5074722;28;45539;-60
2022/11/15 06:45:31;;;;;;;;;3.75;3.75;;;;;10.70;81.05;99988.25;5059595;28;46110;-60
2022/11/15 06:47:57;;;;;;;;;11.00;7.00;;;;;10.64;81.40;99980.66;5058806;28;45319;-59
2022/11/15 06:50:22;;;;;;;;;3.67;3.67;;;;;10.61;81.17;99987.03;5063573;28;45308;-58
2022/11/15 06:52:48;;;;;;;;;3.00;3.00;;;;;10.59;81.30;99972.97;5079009;28;45683;-57
2022/11/15 06:55:13;;;;;;;;;6.33;6.33;;;;;10.66;81.80;99986.72;5078689;28;45297;-58
2022/11/15 06:57:50;;;;;;;;;4.33;4.33;;;;;10.65;81.53;99971.72;5079104;28;45231;-57
2022/11/15 07:00:17;;;;;;;;;4.33;4.33;;;;;10.64;81.36;99965.53;5072077;28;45238;-59
2022/11/15 07:02:46;;;;;;;;;6.50;4.50;;;;;10.60;81.71;99964.06;5057579;28;45484;-59
2022/11/15 07:05:12;;;;;;;;;3.00;3.00;;;;;10.58;81.62;99951.81;5058177;28;45351;-56
2022/11/15 07:07:38;;;;;;;;;3.50;3.50;;;;;10.57;82.41;99945.66;5081343;27;45206;-57
2022/11/15 07:10:04;;;;;;;;;6.75;5.00;;;;;10.58;82.19;99943.84;5099457;27;45185;-59
2022/11/15 07:12:29;;;;;;;;;3.75;3.75;;;;;10.57;82.52;99940.34;5079539;27;45555;-57
2022/11/15 07:14:55;;;;;;;;;5.75;5.75;;;;;10.58;82.55;99939.38;5079140;27;45397;-56
2022/11/15 07:17:21;;;;;;;;;7.33;6.00;;;;;10.59;82.21;99950.88;5078566;27;45323;-57
2022/11/15 07:19:50;;;;;;;;;5.67;3.00;;;;;10.64;82.59;99970.88;5079380;27;45382;-56
2022/11/15 07:22:15;;;;;;;;;11.00;6.00;;;;;10.68;82.71;99971.53;5070318;27;45493;-56
2022/11/15 07:24:41;;;;;;;;;7.50;7.50;;;;;10.63;82.60;99963.00;5096452;27;45484;-55
2022/11/15 07:27:07;;;;;;;;;8.00;4.33;;;;;10.71;82.17;99975.78;5064699;28;45398;-54
2022/11/15 07:29:32;;;;;;;;;3.00;3.00;;;;;10.71;82.02;99967.81;5071085;27;45426;-58
2022/11/15 07:32:01;;;;;;;;;4.25;4.25;;;;;10.70;82.46;99960.78;5072379;27;45886;-57
2022/11/15 07:34:26;;;;;;;;;7.00;7.00;;;;;10.72;81.91;99953.56;5076500;28;46250;-56
2022/11/15 07:36:51;;;;;;;;;3.75;3.75;;;;;10.76;82.22;99953.25;5070068;28;45245;-55
2022/11/15 07:39:17;;;;;;;;;4.67;2.67;;;;;10.88;81.67;99967.53;5077512;28;45235;-58
2022/11/15 07:41:43;;;;;;;;;6.25;4.00;;;;;10.89;81.95;99958.59;5078240;27;45249;-57
2022/11/15 07:44:08;;;;;;;;;4.75;3.00;;;;;10.88;81.82;99947.09;5059060;28;46626;-56
2022/11/15 07:46:34;;;;;;;;;6.67;3.00;;;;;10.92;81.84;99947.72;5077909;27;45776;-56
2022/11/15 07:48:59;;;;;;;;;1.00;1.00;;;;;10.97;81.96;99942.13;5044222;28;45521;-59
2022/11/15 07:51:26;;;;;;;;;4.67;4.67;;;;;10.92;81.45;99921.13;5060138;27;45819;-56
2022/11/15 07:53:52;;;;;;;;;6.50;5.50;;;;;11.00;81.83;99921.47;5057750;28;46106;-55
2022/11/15 07:56:17;;;;;;;;;4.67;3.00;;;;;10.97;81.34;99908.38;5074728;27;45289;-55
2022/11/15 07:58:45;;;;;;;;;6.50;3.00;;;;;11.08;81.28;99916.50;5083609;27;45184;-56
2022/11/15 08:01:11;;;;;;;;;7.33;3.67;;;;;11.14;81.27;99907.22;5066595;28;45434;-55
2022/11/15 08:03:37;;;;;;;;;4.00;4.00;;;;;11.06;80.91;99891.75;5059265;28;46150;-57
2022/11/15 08:06:03;;;;;;;;;7.33;6.00;;;;;11.21;80.82;99912.03;5061890;28;45566;-56
2022/11/15 08:08:28;;;;;;;;;4.00;4.00;;;;;11.23;80.70;99902.13;5040301;28;45489;-57
2022/11/15 08:10:54;;;;;;;;;2.33;2.00;;;;;11.25;80.71;99907.31;5039980;28;45619;-57
2022/11/15 08:13:19;;;;;;;;;8.33;4.00;;;;;11.31;80.49;99906.03;5056979;28;47111;-57
2022/11/15 08:15:45;;;;;;;;;7.00;3.00;;;;;11.34;80.19;99913.81;5057358;28;45359;-56
2022/11/15 08:18:13;;;;;;;;;8.00;3.00;;;;;11.40;79.97;99900.06;5072937;28;45438;-59
2022/11/15 08:20:39;;;;;;;;;6.67;6.67;;;;;11.38;79.58;99891.34;5078150;27;45181;-59
2022/11/15 08:23:06;;;;;;;;;7.00;3.00;;;;;11.44;79.65;99897.06;5078031;28;45448;-57
2022/11/15 08:25:33;;;;;;;;;7.00;4.67;;;;;11.52;79.48;99912.53;5049450;28;45450;-60
2022/11/15 08:28:01;;;;;;;;;4.67;4.00;;;;;11.45;79.30;99893.44;5078863;28;45480;-55
2022/11/15 08:30:27;;;;;;;;;4.00;4.00;;;;;11.59;78.67;99905.81;5078300;27;45550;-57
2022/11/15 08:32:53;;;;;;;;;3.33;1.67;;;;;11.62;78.81;99900.25;5077754;27;46310;-56
2022/11/15 08:35:20;;;;;;;;;4.00;3.67;;;;;11.68;78.66;99893.63;5059776;28;45438;-60
2022/11/15 08:37:46;;;;;;;;;7.00;4.00;;;;;11.71;78.48;99902.25;5081416;27;45300;-57
2022/11/15 08:40:13;;;;;;;;;3.33;3.00;;;;;11.74;78.35;99893.22;5073620;27;45439;-62
2022/11/15 08:42:39;;;;;;;;;2.33;2.33;;;;;11.73;78.02;99891.50;5057144;28;46259;-60
2022/11/15 08:45:06;;;;;;;;;3.33;2.67;;;;;11.82;78.35;99894.38;5058736;28;45456;-54
2022/11/15 08:47:32;;;;;;;;;8.00;8.00;;;;;11.89;77.61;99885.94;5076807;27;45339;-57
2022/11/15 08:49:57;;;;;;;;;2.33;2.33;;;;;11.96;77.66;99888.03;5077375;28;45621;-57
2022/11/15 08:52:23;;;;;;;;;4.00;2.00;;;;;11.99;77.21;99876.34;5075445;27;45346;-59
2022/11/15 08:54:48;;;;;;;;;3.00;3.00;;;;;12.05;77.46;99870.53;5060065;27;45225;-53
2022/11/15 08:57:14;;;;;;;;;7.67;4.33;;;;;12.03;76.63;99854.66;5054060;28;45469;-56
2022/11/15 08:59:40;;;;;;;;;3.00;3.00;;;;;12.12;76.90;99850.47;5059546;28;45696;-53
2022/11/15 09:02:05;;;;;;;;;4.00;4.00;;;;;12.15;76.35;99842.25;5057078;28;45506;-56
2022/11/15 09:04:31;;;;;;;;;6.00;5.67;;;;;12.21;76.19;99836.44;5075665;28;45382;-54
2022/11/15 09:06:57;;;;;;;;;5.67;3.00;;;;;12.30;76.07;99841.09;5069062;27;45540;-56
2022/11/15 09:09:23;;;;;;;;;6.00;3.00;;;;;12.31;76.17;99834.78;5056936;27;45532;-55
2022/11/15 09:11:50;;;;;;;;;6.67;4.00;;;;;12.24;76.00;99817.56;5064797;28;46265;-58
2022/11/15 09:14:16;;;;;;;;;5.00;4.00;;;;;12.43;75.77;99842.84;5076446;27;45546;-56
2022/11/15 09:16:41;;;;;;;;;3.00;3.00;;;;;12.45;75.92;99841.75;5076244;27;45414;-54
2022/11/15 09:19:06;;;;;;;;;3.00;3.00;;;;;12.42;75.28;99820.66;5077024;27;45416;-54
2022/11/15 09:21:33;;;;;;;;;3.33;3.33;;;;;12.43;75.79;99819.69;5060570;28;45899;-53
2022/11/15 09:23:59;;;;;;;;;4.00;2.67;;;;;12.54;74.70;99832.22;5055181;28;45426;-53
2022/11/15 09:26:25;;;;;;;;;4.00;4.00;;;;;12.54;74.99;99834.88;5056420;28;45288;-52
2022/11/15 09:28:50;;;;;;;;;4.00;4.00;;;;;12.58;74.64;99841.66;5057724;28;45210;-55
2022/11/15 09:31:16;;;;;;;;;3.00;3.00;;;;;12.59;74.71;99838.03;5058403;27;47441;-55
2022/11/15 09:33:45;;;;;;;;;7.33;2.00;;;;;12.60;74.38;99831.72;5076522;28;45864;-56
2022/11/15 09:36:11;;;;;;;;;5.00;3.00;;;;;12.61;73.92;99830.75;5077097;28;45383;-52
2022/11/15 09:38:37;;;;;;;;;3.33;3.33;;;;;12.62;74.44;99833.31;5077303;27;45508;-55
2022/11/15 09:41:11;;;;;;;;;3.67;3.00;;;;;12.71;74.17;99837.09;5076152;28;45354;-54
2022/11/15 09:44:05;;;;;;;;;3.33;2.00;;;;;12.70;74.44;99835.41;5058100;28;45397;-57
2022/11/15 09:47:08;;;;;;;;;4.00;3.00;;;;;12.73;74.11;99829.81;5076946;28;45393;-55
2022/11/15 09:49:34;;;;;;;;;3.00;2.00;;;;;12.73;73.84;99829.81;5076587;28;45434;-55
2022/11/15 09:52:00;;;;;;;;;4.00;4.00;;;;;12.58;73.51;99799.00;5076486;27;46209;-55
2022/11/15 09:54:34;;;;;;;;;4.67;3.00;;;;;12.75;73.83;99833.22;5076226;28;45429;-56
2022/11/15 09:57:12;;;;;;;;;3.67;3.67;;;;;12.76;75.09;99828.72;5059067;28;45413;-55
2022/11/15 10:00:08;;;;;;;;;3.00;3.00;;;;;12.78;75.25;99834.81;5076732;28;45536;-57
2022/11/15 10:02:46;;;;;;;;;4.67;4.00;;;;;12.79;75.82;99834.69;5076368;28;45404;-54
2022/11/15 10:05:16;;;;;;;;;5.33;3.00;;;;;12.76;75.59;99812.72;5075128;28;45521;-55
2022/11/15 10:08:02;;;;;;;;;4.00;3.00;;;;;12.73;76.05;99813.81;5080852;27;45457;-56
2022/11/15 10:10:39;;;;;;;;;6.00;4.67;;;;;12.71;76.24;99813.09;5063467;28;45337;-59
2022/11/15 10:13:26;;;;;;;;;6.67;2.00;;;;;12.63;76.64;99800.34;5081719;28;46070;-60
2022/11/15 10:16:10;;;;;;;;;4.00;2.67;;;;;12.62;77.20;99797.78;5080416;28;45251;-56
2022/11/15 10:19:11;;;;;;;;;3.00;3.00;;;;;12.61;77.78;99798.75;5078571;28;45229;-54
2022/11/15 10:22:21;;;;;;;;;5.33;4.00;;;;;12.63;78.24;99794.16;5080432;28;45407;-55
2022/11/15 10:24:47;;;;;;;;;6.00;6.00;;;;;12.67;77.98;99776.94;5037004;28;45411;-54
2022/11/15 10:27:16;;;;;;;;;4.00;3.67;;;;;12.62;77.58;99768.44;5037708;28;45296;-59
2022/11/15 10:29:47;;;;;;;;;4.67;4.67;;;;;12.64;78.20;99755.84;5060531;28;45562;-57
2022/11/15 10:32:14;;;;;;;;;3.00;3.00;;;;;12.62;77.81;99744.44;5062118;28;45525;-56
2022/11/15 10:34:39;;;;;;;;;1.67;1.67;;;;;12.68;78.39;99758.16;5080184;28;45492;-57
2022/11/15 10:37:04;;;;;;;;;0.33;0.33;;;;;12.70;78.04;99756.22;5080247;28;45381;-55
2022/11/15 10:39:31;;;;;;;;;5.67;4.33;;;;;12.66;78.75;99733.44;5095701;27;46036;-56
2022/11/15 10:41:56;;;;;;;;;8.00;6.33;;;;;12.77;78.34;99745.94;5061890;28;45591;-52
2022/11/15 10:44:26;;;;;;;;;5.33;5.33;;;;;12.79;79.01;99733.31;5078978;27;45947;-55
2022/11/15 10:46:54;;;;;;;;;5.00;5.00;;;;;12.80;78.30;99737.69;5079767;28;45355;-54
2022/11/15 10:49:30;;;;;;;;;4.33;4.00;;;;;12.79;79.08;99721.78;5095232;27;45481;-53
2022/11/15 10:52:17;;;;;;;;;4.33;4.00;;;;;12.82;79.51;99722.38;5079371;28;45358;-54
2022/11/15 10:54:49;;;;;;;;;6.33;6.33;;;;;12.83;79.23;99725.91;5094844;27;47050;-58
2022/11/15 10:57:18;;;;;;;;;10.00;3.33;;;;;12.80;78.79;99718.16;5079912;28;45428;-62
2022/11/15 10:59:49;;;;;;;;;3.00;3.00;;;;;12.73;79.81;99711.59;5079811;27;45349;-61
2022/11/15 11:02:28;;;;;;;;;5.00;3.67;;;;;12.80;80.56;99703.00;5079988;28;45501;-58
2022/11/15 11:04:54;;;;;;;;;8.33;4.33;;;;;12.79;80.57;99697.78;5079381;28;45399;-58
2022/11/15 11:07:31;;;;;;;;;6.00;4.00;;;;;12.76;80.67;99673.97;5095320;27;45388;-58
2022/11/15 11:10:19;;;;;;;;;2.00;2.00;;;;;12.84;80.28;99690.25;5079508;28;45415;-59
2022/11/15 11:12:45;;;;;;;;;3.00;3.00;;;;;12.82;80.57;99695.72;5079136;28;45385;-58
2022/11/15 11:15:15;;;;;;;;;4.00;4.00;;;;;12.78;81.00;99680.91;5077920;28;45528;-59
2022/11/15 11:18:03;;;;;;;;;12.33;5.67;;;;;12.77;81.30;99673.88;5077781;27;45250;-58
2022/11/15 11:20:36;;;;;;;;;7.67;7.00;;;;;12.75;81.29;99678.47;5078923;28;45306;-58
2022/11/15 11:23:17;;;;;;;;;4.00;4.00;;;;;12.73;81.12;99671.56;5079056;27;45284;-55
2022/11/15 11:26:28;;;;;;;;;8.67;7.33;;;;;12.72;81.50;99675.22;5078397;28;47286;-61
2022/11/15 11:29:14;;;;;;;;;4.00;3.00;;;;;12.71;82.41;99671.69;5074033;27;45636;-55
2022/11/15 11:32:17;;;;;;;;;3.67;3.67;;;;;12.66;81.96;99674.72;5078499;28;45436;-55
2022/11/15 11:34:57;;;;;;;;;8.67;4.00;;;;;12.66;83.17;99663.22;5078424;28;45501;-53
2022/11/15 11:37:28;;;;;;;;;7.00;7.00;;;;;12.68;83.17;99667.47;5078258;28;46478;-52
2022/11/15 11:40:12;;;;;;;;;7.00;5.00;;;;;12.65;83.33;99650.84;5078424;28;45430;-53
2022/11/15 11:42:53;;;;;;;;;6.33;4.67;;;;;12.62;82.82;99657.25;5078809;27;45408;-57
2022/11/15 11:45:32;;;;;;;;;7.00;5.33;;;;;12.62;83.17;99664.41;5079095;28;45476;-57
2022/11/15 11:48:20;;;;;;;;;7.67;5.33;;;;;12.55;83.96;99644.53;5078315;28;46200;-58
2022/11/15 11:50:47;;;;;;;;;9.00;8.00;;;;;12.52;84.67;99631.47;5078440;28;45406;-59
2022/11/15 11:53:39;;;;;;;;;5.67;5.33;;;;;12.57;84.70;99642.59;5078426;28;45494;-61
2022/11/15 11:56:29;;;;;;;;;5.00;5.00;;;;;12.51;84.79;99632.44;5095084;27;45612;-59